createdAt,value
2023-02-19T00:02:18.939Z,8.73
2023-02-19T00:04:46.027Z,8.75
2023-02-19T00:11:12.514Z,8.82
2023-02-19T00:13:43.688Z,8.83
2023-02-19T00:16:14.724Z,8.84
2023-02-19T00:23:15.180Z,8.82
2023-02-19T00:25:42.201Z,8.80
2023-02-19T00:28:09.376Z,8.79
2023-02-19T00:30:36.361Z,8.79
2023-02-19T00:33:03.380Z,8.79
2023-02-19T00:39:43.958Z,8.71
2023-02-19T00:42:11.123Z,8.65
2023-02-19T00:49:06.650Z,8.57
2023-02-19T00:51:38.504Z,8.58
2023-02-19T00:54:06.478Z,8.60
2023-02-19T01:01:01.294Z,8.58
2023-02-19T01:03:28.032Z,8.57
2023-02-19T01:10:16.812Z,8.48
2023-02-19T01:16:38.047Z,8.40
2023-02-19T01:19:05.191Z,8.36
2023-02-19T01:22:49.241Z,8.35
2023-02-19T01:25:16.089Z,8.38
2023-02-19T01:27:43.020Z,8.37
2023-02-19T01:30:10.607Z,8.38
2023-02-19T01:36:58.346Z,8.41
2023-02-19T01:48:27.700Z,8.39
2023-02-19T01:51:06.733Z,8.42
2023-02-19T01:58:10.048Z,8.44
2023-02-19T02:09:32.239Z,8.23
2023-02-19T02:11:59.696Z,8.15
2023-02-19T02:14:29.198Z,8.10
2023-02-19T02:17:18.469Z,8.08
2023-02-19T02:20:11.318Z,8.14
2023-02-19T02:22:42.664Z,8.16
2023-02-19T02:25:46.780Z,8.12
2023-02-19T02:28:32.572Z,8.09
2023-02-19T02:35:18.889Z,8.15
2023-02-19T02:42:26.205Z,8.06
2023-02-19T02:45:36.972Z,8.09
2023-02-19T02:57:03.983Z,8.00
2023-02-19T02:59:36.969Z,7.92
2023-02-19T03:02:11.042Z,7.84
2023-02-19T03:05:15.186Z,7.80
2023-02-19T03:07:56.978Z,7.81
2023-02-19T03:10:30.675Z,7.78
2023-02-19T03:13:18.925Z,7.73
2023-02-19T03:16:11.289Z,7.72
2023-02-19T03:22:48.468Z,7.69
2023-02-19T03:29:45.857Z,7.58
2023-02-19T03:32:20.854Z,7.56
2023-02-19T03:39:22.469Z,7.65
2023-02-19T03:42:05.901Z,7.69
2023-02-19T03:44:50.960Z,7.70
2023-02-19T03:47:32.145Z,7.71
2023-02-19T03:50:20.995Z,7.72
2023-02-19T03:52:50.910Z,7.70
2023-02-19T03:55:48.169Z,7.72
2023-02-19T03:58:28.628Z,7.79
2023-02-19T04:05:35.645Z,7.95
2023-02-19T04:08:13.542Z,7.91
2023-02-19T04:10:45.810Z,7.86
2023-02-19T04:22:08.816Z,7.81
2023-02-19T04:24:45.372Z,7.80
2023-02-19T04:27:12.434Z,7.75
2023-02-19T04:42:55.630Z,7.84
2023-02-19T04:45:22.677Z,7.90
2023-02-19T04:47:49.824Z,7.95
2023-02-19T04:54:37.890Z,7.91
2023-02-19T04:57:05.464Z,7.86
2023-02-19T05:03:41.532Z,7.76
2023-02-19T05:06:10.930Z,7.76
2023-02-19T05:08:38.485Z,7.77
2023-02-19T05:15:31.494Z,7.79
2023-02-19T05:17:58.715Z,7.69
2023-02-19T05:20:25.564Z,7.62
2023-02-19T05:22:52.607Z,7.58
2023-02-19T05:25:19.763Z,7.58
2023-02-19T05:32:14.031Z,7.55
2023-02-19T05:34:41.095Z,7.54
2023-02-19T05:41:42.694Z,7.45
2023-02-19T05:57:28.659Z,7.24
2023-02-19T06:04:23.895Z,7.17
2023-02-19T06:06:51.149Z,7.25
2023-02-19T06:13:51.202Z,7.49
2023-02-19T06:29:45.666Z,7.76
2023-02-19T06:32:12.578Z,7.81
2023-02-19T06:34:39.749Z,7.87
2023-02-19T06:41:34.887Z,7.95
2023-02-19T06:44:04.675Z,8.02
2023-02-19T06:50:59.008Z,8.15
2023-02-19T06:53:27.278Z,8.18
2023-02-19T06:56:06.600Z,8.26
2023-02-19T07:07:14.671Z,8.57
2023-02-19T07:14:15.221Z,8.71
2023-02-19T07:16:43.377Z,8.79
2023-02-19T07:23:37.936Z,8.95
2023-02-19T07:38:16.810Z,8.98
2023-02-19T07:40:57.694Z,8.96
2023-02-19T07:43:26.580Z,8.97
2023-02-19T07:50:28.975Z,8.70
2023-02-19T07:52:56.016Z,8.54
2023-02-19T07:55:23.065Z,8.41
2023-02-19T07:57:50.008Z,8.33
2023-02-19T08:00:19.104Z,8.30
2023-02-19T08:12:14.669Z,8.04
2023-02-19T08:14:41.721Z,8.09
2023-02-19T08:17:08.900Z,8.08
2023-02-19T08:19:36.014Z,8.06
2023-02-19T08:22:03.155Z,8.08
2023-02-19T08:28:58.925Z,8.13
2023-02-19T08:31:26.837Z,8.21
2023-02-19T08:38:21.182Z,8.31
2023-02-19T08:40:48.231Z,8.36
2023-02-19T08:43:17.340Z,8.42
2023-02-19T08:54:32.794Z,8.74
2023-02-19T08:56:59.998Z,8.72
2023-02-19T08:59:29.502Z,8.72
2023-02-19T09:10:28.039Z,8.94
2023-02-19T09:21:25.053Z,9.18
2023-02-19T09:23:55.239Z,9.13
2023-02-19T09:26:24.530Z,9.12
2023-02-19T09:28:51.501Z,9.15
2023-02-19T09:31:18.514Z,9.20
2023-02-19T09:42:32.766Z,9.35
2023-02-19T09:45:01.442Z,9.37
2023-02-19T09:47:31.155Z,9.39
2023-02-19T09:50:07.096Z,9.46
2023-02-19T09:52:51.348Z,9.54
2023-02-19T10:04:26.848Z,9.60
2023-02-19T10:06:58.810Z,9.61
2023-02-19T10:09:27.016Z,9.65
2023-02-19T10:11:55.557Z,9.71
2023-02-19T10:14:46.359Z,9.79
2023-02-19T10:17:24.671Z,9.82
2023-02-19T10:19:52.948Z,9.86
2023-02-19T10:22:20.627Z,9.94
2023-02-19T10:24:52.878Z,10.03
2023-02-19T10:32:13.636Z,10.35
2023-02-19T10:34:40.692Z,10.61
2023-02-19T10:41:44.144Z,11.08
2023-02-19T10:44:19.317Z,11.18
2023-02-19T10:46:50.048Z,11.28
2023-02-19T10:49:24.475Z,11.43
2023-02-19T10:51:53.876Z,11.53
2023-02-19T10:54:27.181Z,11.68
2023-02-19T10:56:54.630Z,11.82
2023-02-19T11:08:23.256Z,12.24
2023-02-19T11:10:50.608Z,12.27
2023-02-19T11:13:24.414Z,12.28
2023-02-19T11:15:54.543Z,12.32
2023-02-19T11:18:31.098Z,12.46
2023-02-19T11:29:39.371Z,12.59
2023-02-19T11:32:29.273Z,12.74
2023-02-19T11:39:31.235Z,12.95
2023-02-19T11:55:04.508Z,13.57
2023-02-19T12:06:45.636Z,14.02
2023-02-19T12:09:30.602Z,14.13
2023-02-19T12:12:16.156Z,14.26
2023-02-19T12:14:42.922Z,14.45
2023-02-19T12:17:51.338Z,14.61
2023-02-19T12:21:02.006Z,14.77
2023-02-19T12:28:18.446Z,14.96
2023-02-19T12:31:03.622Z,15.01
2023-02-19T12:33:45.398Z,15.03
2023-02-19T12:36:40.807Z,15.00
2023-02-19T12:43:47.104Z,15.19
2023-02-19T12:50:53.047Z,15.56
2023-02-19T12:54:03.491Z,15.68
2023-02-19T12:57:09.990Z,15.77
2023-02-19T12:59:39.598Z,15.88
2023-02-19T13:02:13.079Z,15.97
2023-02-19T13:04:41.788Z,16.03
2023-02-19T13:07:16.703Z,16.11
2023-02-19T13:09:51.292Z,16.12
2023-02-19T13:12:30.967Z,16.09
2023-02-19T13:15:01.965Z,16.06
2023-02-19T13:17:44.331Z,15.93
2023-02-19T13:20:20.621Z,15.83
2023-02-19T13:23:16.640Z,15.75
2023-02-19T13:25:43.563Z,15.73
2023-02-19T13:28:26.341Z,15.69
2023-02-19T13:31:10.917Z,15.63
2023-02-19T13:34:15.108Z,15.65
2023-02-19T13:36:41.533Z,15.70
2023-02-19T13:39:12.372Z,15.75
2023-02-19T13:41:49.634Z,15.82
2023-02-19T13:44:19.184Z,15.89
2023-02-19T13:46:47.596Z,15.88
2023-02-19T13:49:28.557Z,15.81
2023-02-19T13:51:58.490Z,15.76
2023-02-19T13:54:27.677Z,15.78
2023-02-19T13:57:23.080Z,15.86
2023-02-19T13:59:50.720Z,15.94
2023-02-19T14:02:19.463Z,15.93
2023-02-19T14:04:53.031Z,15.95
2023-02-19T14:07:32.518Z,15.96
2023-02-19T14:10:01.063Z,16.00
2023-02-19T14:12:32.906Z,16.06
2023-02-19T14:15:24.817Z,16.10
2023-02-19T14:17:50.777Z,16.12
2023-02-19T14:20:16.630Z,16.15
2023-02-19T14:22:45.614Z,16.21
2023-02-19T14:25:29.929Z,16.26
2023-02-19T14:28:34.599Z,16.27
2023-02-19T14:31:17.460Z,16.23
2023-02-19T14:33:48.392Z,16.22
2023-02-19T14:36:33.451Z,16.18
2023-02-19T14:39:10.376Z,16.18
2023-02-19T14:41:44.453Z,16.20
2023-02-19T14:44:20.035Z,16.18
2023-02-19T14:46:53.111Z,16.16
2023-02-19T14:49:50.794Z,16.19
2023-02-19T14:52:19.966Z,16.24
2023-02-19T14:54:53.647Z,16.25
2023-02-19T14:57:24.975Z,16.52
2023-02-19T14:59:58.039Z,17.44
2023-02-19T15:02:28.127Z,18.49
2023-02-19T15:04:54.642Z,19.12
2023-02-19T15:07:32.413Z,19.56
2023-02-19T15:10:04.809Z,19.88
2023-02-19T15:12:56.917Z,20.22
2023-02-19T15:15:32.620Z,20.57
2023-02-19T15:18:00.702Z,20.76
2023-02-19T15:20:37.451Z,20.93
2023-02-19T15:23:07.438Z,21.05
2023-02-19T15:25:36.007Z,20.91
2023-02-19T15:28:24.332Z,20.59
2023-02-19T15:30:56.774Z,20.22
2023-02-19T15:33:23.151Z,19.85
2023-02-19T15:35:51.848Z,19.43
2023-02-19T15:38:17.992Z,19.34
2023-02-19T15:40:45.588Z,19.42
2023-02-19T15:43:20.554Z,19.55
2023-02-19T15:45:47.428Z,19.41
2023-02-19T15:48:18.969Z,19.18
2023-02-19T15:50:54.101Z,18.91
2023-02-19T15:53:25.488Z,18.59
2023-02-19T15:56:04.006Z,18.46
2023-02-19T15:58:43.828Z,18.18
2023-02-19T16:01:13.196Z,18.01
2023-02-19T16:03:39.526Z,17.79
2023-02-19T16:06:14.252Z,17.60
2023-02-19T16:08:42.566Z,17.20
2023-02-19T16:11:23.603Z,16.64
2023-02-19T16:14:13.244Z,16.07
2023-02-19T16:16:42.246Z,15.44
2023-02-19T16:19:09.126Z,14.97
2023-02-19T16:21:35.593Z,14.56
2023-02-19T16:24:26.676Z,14.21
2023-02-19T16:26:53.844Z,13.84
2023-02-19T16:29:30.809Z,13.55
2023-02-19T16:32:00.463Z,13.29
2023-02-19T16:34:41.891Z,13.04
2023-02-19T16:37:37.373Z,12.81
2023-02-19T16:40:06.426Z,12.57
2023-02-19T16:42:33.567Z,12.37
2023-02-19T16:44:59.529Z,12.22
2023-02-19T16:47:33.669Z,12.05
2023-02-19T16:50:02.705Z,11.84
2023-02-19T16:52:29.254Z,11.69
2023-02-19T16:54:55.197Z,11.55
2023-02-19T16:57:21.194Z,11.42
2023-02-19T16:59:47.318Z,11.32
2023-02-19T17:02:20.710Z,11.23
2023-02-19T17:04:48.439Z,11.14
2023-02-19T17:07:17.077Z,11.05
2023-02-19T17:09:43.273Z,10.98
2023-02-19T17:12:11.555Z,10.92
2023-02-19T17:14:37.563Z,10.84
2023-02-19T17:17:04.892Z,10.77
2023-02-19T17:19:30.751Z,10.69
2023-02-19T17:21:58.300Z,10.59
2023-02-19T17:24:24.430Z,10.50
2023-02-19T17:26:50.340Z,10.43
2023-02-19T17:29:17.813Z,10.34
2023-02-19T17:31:44.199Z,10.29
2023-02-19T17:34:10.374Z,10.25
2023-02-19T17:36:37.422Z,10.18
2023-02-19T17:39:06.606Z,10.16
2023-02-19T17:41:32.569Z,10.14
2023-02-19T17:43:58.432Z,10.10
2023-02-19T17:46:26.816Z,10.08
2023-02-19T17:48:53.737Z,10.07
2023-02-19T17:51:20.056Z,10.01
2023-02-19T17:53:46.059Z,9.95
2023-02-19T17:56:18.870Z,9.87
2023-02-19T17:58:45.207Z,9.82
2023-02-19T18:01:11.728Z,9.76
2023-02-19T18:03:37.922Z,9.72
2023-02-19T18:06:04.804Z,9.67
2023-02-19T18:08:30.821Z,9.65
2023-02-19T18:10:56.754Z,9.64
2023-02-19T18:13:22.625Z,9.65
2023-02-19T18:15:48.543Z,9.64
2023-02-19T18:18:14.537Z,9.64
2023-02-19T18:20:40.438Z,9.66
2023-02-19T18:23:06.331Z,9.67
2023-02-19T18:25:32.196Z,9.67
2023-02-19T18:27:58.933Z,9.66
2023-02-19T18:30:25.620Z,9.65
2023-02-19T18:32:51.715Z,9.65
2023-02-19T18:35:19.241Z,9.65
2023-02-19T18:37:48.516Z,9.64
2023-02-19T18:40:14.550Z,9.62
2023-02-19T18:42:40.479Z,9.63
2023-02-19T18:45:07.080Z,9.66
2023-02-19T18:47:32.963Z,9.67
2023-02-19T18:49:59.068Z,9.67
2023-02-19T18:52:26.629Z,9.67
2023-02-19T18:54:54.499Z,9.69
2023-02-19T18:57:23.107Z,9.70
2023-02-19T18:59:49.922Z,9.70
2023-02-19T19:02:16.188Z,9.68
2023-02-19T19:04:42.561Z,9.66
2023-02-19T19:07:09.562Z,9.64
2023-02-19T19:09:35.819Z,9.62
2023-02-19T19:12:02.794Z,9.61
2023-02-19T19:14:28.861Z,9.59
2023-02-19T19:16:54.825Z,9.57
2023-02-19T19:19:21.072Z,9.56
2023-02-19T19:21:54.253Z,9.56
2023-02-19T19:24:21.559Z,9.57
2023-02-19T19:26:48.439Z,9.59
2023-02-19T19:29:16.495Z,9.59
2023-02-19T19:31:43.331Z,9.61
2023-02-19T19:34:10.555Z,9.64
2023-02-19T19:36:37.197Z,9.65
2023-02-19T19:39:03.896Z,9.64
2023-02-19T19:41:29.984Z,9.63
2023-02-19T19:43:56.344Z,9.62
2023-02-19T19:46:22.427Z,9.59
2023-02-19T19:48:50.225Z,9.55
2023-02-19T19:51:16.705Z,9.53
2023-02-19T19:53:42.659Z,9.51
2023-02-19T19:56:08.612Z,9.52
2023-02-19T19:58:36.570Z,9.55
2023-02-19T20:01:03.114Z,9.57
2023-02-19T20:03:29.019Z,9.58
2023-02-19T20:05:55.046Z,9.59
2023-02-19T20:08:21.616Z,9.60
2023-02-19T20:10:47.563Z,9.59
2023-02-19T20:13:18.113Z,9.59
2023-02-19T20:15:44.617Z,9.61
2023-02-19T20:18:10.727Z,9.62
2023-02-19T20:20:36.803Z,9.62
2023-02-19T20:23:02.843Z,9.59
2023-02-19T20:25:28.962Z,9.55
2023-02-19T20:27:54.851Z,9.50
2023-02-19T20:30:23.225Z,9.49
2023-02-19T20:32:49.827Z,9.48
2023-02-19T20:35:16.941Z,9.49
2023-02-19T20:37:43.523Z,9.49
2023-02-19T20:40:11.221Z,9.49
2023-02-19T20:42:37.398Z,9.45
2023-02-19T20:45:04.401Z,9.45
2023-02-19T20:47:31.041Z,9.44
2023-02-19T20:49:57.026Z,9.44
2023-02-19T20:52:24.179Z,9.43
2023-02-19T20:54:55.112Z,9.40
2023-02-19T20:57:22.349Z,9.36
2023-02-19T20:59:48.286Z,9.34
2023-02-19T21:02:18.884Z,9.33
2023-02-19T21:04:44.924Z,9.32
2023-02-19T21:07:10.925Z,9.31
2023-02-19T21:09:36.951Z,9.33
2023-02-19T21:12:03.138Z,9.38
2023-02-19T21:14:29.115Z,9.43
2023-02-19T21:16:55.087Z,9.44
2023-02-19T21:19:21.830Z,9.45
2023-02-19T21:21:47.926Z,9.50
2023-02-19T21:24:14.743Z,9.54
2023-02-19T21:26:42.504Z,9.55
2023-02-19T21:29:10.347Z,9.54
2023-02-19T21:31:47.657Z,9.51
2023-02-19T21:34:17.043Z,9.49
2023-02-19T21:36:43.051Z,9.49
2023-02-19T21:39:11.418Z,9.52
2023-02-19T21:41:37.404Z,9.55
2023-02-19T21:44:03.734Z,9.59
2023-02-19T21:46:30.068Z,9.60
2023-02-19T21:48:56.415Z,9.61
2023-02-19T21:51:30.278Z,9.62
2023-02-19T21:53:56.129Z,9.66
2023-02-19T21:56:24.267Z,9.66
2023-02-19T21:58:50.527Z,9.65
2023-02-19T22:01:21.666Z,9.63
2023-02-19T22:03:48.069Z,9.62
2023-02-19T22:06:14.569Z,9.61
2023-02-19T22:08:40.516Z,9.62
2023-02-19T22:11:06.398Z,9.62
2023-02-19T22:13:32.316Z,9.64
2023-02-19T22:15:58.319Z,9.65
2023-02-19T22:18:24.291Z,9.66
2023-02-19T22:20:50.292Z,9.68
2023-02-19T22:23:16.255Z,9.69
2023-02-19T22:25:42.153Z,9.72
2023-02-19T22:28:08.067Z,9.73
2023-02-19T22:30:34.035Z,9.74
2023-02-19T22:32:59.943Z,9.73
2023-02-19T22:35:26.462Z,9.70
2023-02-19T22:37:52.636Z,9.69
2023-02-19T22:40:19.073Z,9.67
2023-02-19T22:42:45.102Z,9.66
2023-02-19T22:45:11.391Z,9.65
2023-02-19T22:47:37.568Z,9.64
2023-02-19T22:50:03.627Z,9.64
2023-02-19T22:52:29.671Z,9.64
2023-02-19T22:54:55.818Z,9.64
2023-02-19T22:57:21.799Z,9.64
2023-02-19T22:59:47.781Z,9.65
2023-02-19T23:02:13.800Z,9.65
2023-02-19T23:04:39.756Z,9.64
2023-02-19T23:07:06.625Z,9.63
2023-02-19T23:09:32.571Z,9.62
2023-02-19T23:12:08.434Z,9.62
2023-02-19T23:14:35.360Z,9.62
2023-02-19T23:17:01.996Z,9.62
2023-02-19T23:19:28.094Z,9.62
2023-02-19T23:21:54.236Z,9.63
2023-02-19T23:24:20.569Z,9.62
2023-02-19T23:26:49.377Z,9.63
2023-02-19T23:29:18.042Z,9.63
2023-02-19T23:31:44.464Z,9.62
2023-02-19T23:34:11.393Z,9.62
2023-02-19T23:36:45.013Z,9.60
2023-02-19T23:39:13.011Z,9.55
2023-02-19T23:41:38.984Z,9.53
2023-02-19T23:44:05.114Z,9.53
2023-02-19T23:46:33.226Z,9.53
2023-02-19T23:48:59.157Z,9.50
2023-02-19T23:51:25.027Z,9.50
2023-02-19T23:53:50.919Z,9.52
2023-02-19T23:56:27.560Z,9.53
2023-02-19T23:58:53.649Z,9.52
